sensor_id;sensor_type;location;lat;lon;timestamp;P1;durP1;ratioP1;P2;durP2;ratioP2
58214;SDS011;44011;52.218;1.480;2022-11-20T00:01:25;23.08;;;15.10;;
58214;SDS011;44011;52.218;1.480;2022-11-20T00:04:49;27.15;;;15.70;;
58214;SDS011;44011;52.218;1.480;2022-11-20T00:08:14;24.75;;;13.70;;
58214;SDS011;44011;52.218;1.480;2022-11-20T00:11:38;22.33;;;13.05;;
58214;SDS011;44011;52.218;1.480;2022-11-20T00:15:02;24.25;;;12.32;;
58214;SDS011;44011;52.218;1.480;2022-11-20T00:18:28;19.17;;;11.57;;
58214;SDS011;44011;52.218;1.480;2022-11-20T00:21:52;19.98;;;11.73;;
58214;SDS011;44011;52.218;1.480;2022-11-20T00:25:16;14.43;;;10.00;;
58214;SDS011;44011;52.218;1.480;2022-11-20T00:28:41;18.33;;;11.40;;
58214;SDS011;44011;52.218;1.480;2022-11-20T00:32:06;19.38;;;11.98;;
58214;SDS011;44011;52.218;1.480;2022-11-20T00:35:30;19.92;;;12.25;;
58214;SDS011;44011;52.218;1.480;2022-11-20T00:38:55;21.77;;;13.43;;
58214;SDS011;44011;52.218;1.480;2022-11-20T00:42:19;20.23;;;11.57;;
58214;SDS011;44011;52.218;1.480;2022-11-20T00:45:43;21.60;;;11.63;;
58214;SDS011;44011;52.218;1.480;2022-11-20T00:49:07;22.25;;;13.63;;
58214;SDS011;44011;52.218;1.480;2022-11-20T00:52:31;21.40;;;13.00;;
58214;SDS011;44011;52.218;1.480;2022-11-20T00:55:57;24.73;;;14.23;;
58214;SDS011;44011;52.218;1.480;2022-11-20T00:59:21;27.27;;;14.57;;
58214;SDS011;44011;52.218;1.480;2022-11-20T01:02:45;27.50;;;14.88;;
58214;SDS011;44011;52.218;1.480;2022-11-20T01:06:11;24.55;;;14.65;;
58214;SDS011;44011;52.218;1.480;2022-11-20T01:09:35;26.10;;;15.13;;
58214;SDS011;44011;52.218;1.480;2022-11-20T01:12:59;26.42;;;15.85;;
58214;SDS011;44011;52.218;1.480;2022-11-20T01:16:25;27.80;;;16.65;;
58214;SDS011;44011;52.218;1.480;2022-11-20T01:19:50;27.85;;;15.15;;
58214;SDS011;44011;52.218;1.480;2022-11-20T01:23:14;28.45;;;15.77;;
58214;SDS011;44011;52.218;1.480;2022-11-20T01:26:39;22.23;;;14.93;;
58214;SDS011;44011;52.218;1.480;2022-11-20T01:30:03;27.52;;;15.93;;
58214;SDS011;44011;52.218;1.480;2022-11-20T01:33:36;29.77;;;17.55;;
58214;SDS011;44011;52.218;1.480;2022-11-20T01:37:00;24.63;;;15.15;;
58214;SDS011;44011;52.218;1.480;2022-11-20T01:40:24;31.88;;;15.98;;
58214;SDS011;44011;52.218;1.480;2022-11-20T01:44:09;31.55;;;17.70;;
58214;SDS011;44011;52.218;1.480;2022-11-20T01:47:52;27.02;;;16.58;;
58214;SDS011;44011;52.218;1.480;2022-11-20T01:51:26;28.40;;;16.05;;
58214;SDS011;44011;52.218;1.480;2022-11-20T01:54:58;31.80;;;16.98;;
58214;SDS011;44011;52.218;1.480;2022-11-20T01:58:25;25.27;;;16.10;;
58214;SDS011;44011;52.218;1.480;2022-11-20T02:01:52;30.13;;;18.02;;
58214;SDS011;44011;52.218;1.480;2022-11-20T02:05:34;35.15;;;18.42;;
58214;SDS011;44011;52.218;1.480;2022-11-20T02:09:13;30.08;;;17.05;;
58214;SDS011;44011;52.218;1.480;2022-11-20T02:12:38;26.27;;;15.60;;
58214;SDS011;44011;52.218;1.480;2022-11-20T02:16:08;33.25;;;18.75;;
58214;SDS011;44011;52.218;1.480;2022-11-20T02:19:33;31.50;;;17.20;;
58214;SDS011;44011;52.218;1.480;2022-11-20T02:22:59;34.60;;;18.48;;
58214;SDS011;44011;52.218;1.480;2022-11-20T02:26:37;36.35;;;17.60;;
58214;SDS011;44011;52.218;1.480;2022-11-20T02:30:03;31.17;;;16.50;;
58214;SDS011;44011;52.218;1.480;2022-11-20T02:33:28;32.83;;;17.50;;
58214;SDS011;44011;52.218;1.480;2022-11-20T02:36:52;32.08;;;18.02;;
58214;SDS011;44011;52.218;1.480;2022-11-20T02:40:18;29.73;;;17.40;;
58214;SDS011;44011;52.218;1.480;2022-11-20T02:43:42;28.88;;;15.82;;
58214;SDS011;44011;52.218;1.480;2022-11-20T02:47:06;30.95;;;16.77;;
58214;SDS011;44011;52.218;1.480;2022-11-20T02:50:30;31.75;;;17.25;;
58214;SDS011;44011;52.218;1.480;2022-11-20T02:53:55;35.17;;;17.83;;
58214;SDS011;44011;52.218;1.480;2022-11-20T02:57:19;34.30;;;17.98;;
58214;SDS011;44011;52.218;1.480;2022-11-20T03:00:43;32.22;;;16.52;;
58214;SDS011;44011;52.218;1.480;2022-11-20T03:04:07;28.48;;;15.63;;
58214;SDS011;44011;52.218;1.480;2022-11-20T03:07:31;31.58;;;18.17;;
58214;SDS011;44011;52.218;1.480;2022-11-20T03:10:55;33.55;;;16.35;;
58214;SDS011;44011;52.218;1.480;2022-11-20T03:14:19;30.42;;;15.43;;
58214;SDS011;44011;52.218;1.480;2022-11-20T03:17:43;30.48;;;15.65;;
58214;SDS011;44011;52.218;1.480;2022-11-20T03:21:08;27.67;;;15.10;;
58214;SDS011;44011;52.218;1.480;2022-11-20T03:24:32;28.30;;;15.43;;
58214;SDS011;44011;52.218;1.480;2022-11-20T03:27:56;35.72;;;17.30;;
58214;SDS011;44011;52.218;1.480;2022-11-20T03:31:22;27.20;;;14.65;;
58214;SDS011;44011;52.218;1.480;2022-11-20T03:34:46;35.00;;;16.17;;
58214;SDS011;44011;52.218;1.480;2022-11-20T03:38:11;29.38;;;16.15;;
58214;SDS011;44011;52.218;1.480;2022-11-20T03:41:39;29.48;;;15.68;;
58214;SDS011;44011;52.218;1.480;2022-11-20T03:45:15;27.70;;;15.20;;
58214;SDS011;44011;52.218;1.480;2022-11-20T03:52:03;28.40;;;14.85;;
58214;SDS011;44011;52.218;1.480;2022-11-20T03:55:27;33.10;;;15.20;;
58214;SDS011;44011;52.218;1.480;2022-11-20T03:58:52;25.50;;;13.85;;
58214;SDS011;44011;52.218;1.480;2022-11-20T04:02:17;32.38;;;16.33;;
58214;SDS011;44011;52.218;1.480;2022-11-20T04:05:41;36.85;;;17.98;;
58214;SDS011;44011;52.218;1.480;2022-11-20T04:09:05;38.75;;;17.58;;
58214;SDS011;44011;52.218;1.480;2022-11-20T04:12:31;27.92;;;14.95;;
58214;SDS011;44011;52.218;1.480;2022-11-20T04:15:57;32.00;;;14.93;;
58214;SDS011;44011;52.218;1.480;2022-11-20T04:19:21;32.28;;;16.27;;
58214;SDS011;44011;52.218;1.480;2022-11-20T04:22:45;31.17;;;15.63;;
58214;SDS011;44011;52.218;1.480;2022-11-20T04:26:10;29.90;;;15.88;;
58214;SDS011;44011;52.218;1.480;2022-11-20T04:29:34;31.45;;;16.38;;
58214;SDS011;44011;52.218;1.480;2022-11-20T04:32:59;32.08;;;15.93;;
58214;SDS011;44011;52.218;1.480;2022-11-20T04:39:50;28.58;;;14.40;;
58214;SDS011;44011;52.218;1.480;2022-11-20T04:43:14;29.63;;;15.18;;
58214;SDS011;44011;52.218;1.480;2022-11-20T04:46:41;30.17;;;14.82;;
58214;SDS011;44011;52.218;1.480;2022-11-20T04:50:06;25.83;;;14.10;;
58214;SDS011;44011;52.218;1.480;2022-11-20T04:53:30;30.80;;;15.63;;
58214;SDS011;44011;52.218;1.480;2022-11-20T04:56:54;30.05;;;14.27;;
58214;SDS011;44011;52.218;1.480;2022-11-20T05:00:18;26.33;;;13.57;;
58214;SDS011;44011;52.218;1.480;2022-11-20T05:03:43;33.08;;;14.25;;
58214;SDS011;44011;52.218;1.480;2022-11-20T05:07:07;28.27;;;13.65;;
58214;SDS011;44011;52.218;1.480;2022-11-20T05:10:31;28.55;;;15.55;;
58214;SDS011;44011;52.218;1.480;2022-11-20T05:13:58;29.85;;;16.02;;
58214;SDS011;44011;52.218;1.480;2022-11-20T05:17:22;27.92;;;14.35;;
58214;SDS011;44011;52.218;1.480;2022-11-20T05:20:46;29.58;;;15.35;;
58214;SDS011;44011;52.218;1.480;2022-11-20T05:24:10;25.70;;;13.75;;
58214;SDS011;44011;52.218;1.480;2022-11-20T05:27:34;29.25;;;14.90;;
58214;SDS011;44011;52.218;1.480;2022-11-20T05:31:04;28.23;;;14.52;;
58214;SDS011;44011;52.218;1.480;2022-11-20T05:34:31;27.95;;;13.95;;
58214;SDS011;44011;52.218;1.480;2022-11-20T05:37:55;29.58;;;13.80;;
58214;SDS011;44011;52.218;1.480;2022-11-20T05:41:19;33.83;;;15.88;;
58214;SDS011;44011;52.218;1.480;2022-11-20T05:44:55;33.97;;;14.85;;
58214;SDS011;44011;52.218;1.480;2022-11-20T05:48:20;31.38;;;17.20;;
58214;SDS011;44011;52.218;1.480;2022-11-20T05:51:44;39.63;;;15.90;;
58214;SDS011;44011;52.218;1.480;2022-11-20T05:55:08;38.88;;;15.85;;
58214;SDS011;44011;52.218;1.480;2022-11-20T05:58:35;37.90;;;18.37;;
58214;SDS011;44011;52.218;1.480;2022-11-20T06:01:59;50.15;;;19.38;;
58214;SDS011;44011;52.218;1.480;2022-11-20T06:05:23;45.83;;;17.98;;
58214;SDS011;44011;52.218;1.480;2022-11-20T06:08:47;39.28;;;17.25;;
58214;SDS011;44011;52.218;1.480;2022-11-20T06:12:11;39.08;;;16.83;;
58214;SDS011;44011;52.218;1.480;2022-11-20T06:15:35;35.92;;;16.52;;
58214;SDS011;44011;52.218;1.480;2022-11-20T06:18:59;45.72;;;19.00;;
58214;SDS011;44011;52.218;1.480;2022-11-20T06:22:23;43.17;;;19.40;;
58214;SDS011;44011;52.218;1.480;2022-11-20T06:25:47;41.42;;;18.25;;
58214;SDS011;44011;52.218;1.480;2022-11-20T06:29:11;39.25;;;17.95;;
58214;SDS011;44011;52.218;1.480;2022-11-20T06:32:35;45.47;;;19.90;;
58214;SDS011;44011;52.218;1.480;2022-11-20T06:36:00;39.13;;;17.95;;
58214;SDS011;44011;52.218;1.480;2022-11-20T06:39:24;51.47;;;19.08;;
58214;SDS011;44011;52.218;1.480;2022-11-20T06:42:48;42.63;;;18.40;;
58214;SDS011;44011;52.218;1.480;2022-11-20T06:46:12;42.72;;;17.95;;
58214;SDS011;44011;52.218;1.480;2022-11-20T06:49:36;40.70;;;17.75;;
58214;SDS011;44011;52.218;1.480;2022-11-20T06:53:04;37.13;;;16.45;;
58214;SDS011;44011;52.218;1.480;2022-11-20T06:56:28;43.83;;;17.30;;
58214;SDS011;44011;52.218;1.480;2022-11-20T06:59:52;38.45;;;17.45;;
58214;SDS011;44011;52.218;1.480;2022-11-20T07:03:16;38.30;;;15.68;;
58214;SDS011;44011;52.218;1.480;2022-11-20T07:06:40;30.88;;;14.35;;
58214;SDS011;44011;52.218;1.480;2022-11-20T07:10:04;31.00;;;13.77;;
58214;SDS011;44011;52.218;1.480;2022-11-20T07:13:29;29.90;;;15.00;;
58214;SDS011;44011;52.218;1.480;2022-11-20T07:16:54;34.92;;;13.57;;
58214;SDS011;44011;52.218;1.480;2022-11-20T07:20:18;32.63;;;14.98;;
58214;SDS011;44011;52.218;1.480;2022-11-20T07:23:42;32.83;;;15.77;;
58214;SDS011;44011;52.218;1.480;2022-11-20T07:27:06;35.35;;;14.88;;
58214;SDS011;44011;52.218;1.480;2022-11-20T07:30:30;33.65;;;15.43;;
58214;SDS011;44011;52.218;1.480;2022-11-20T07:33:54;35.88;;;15.90;;
58214;SDS011;44011;52.218;1.480;2022-11-20T07:37:18;30.83;;;16.05;;
58214;SDS011;44011;52.218;1.480;2022-11-20T07:40:42;28.38;;;13.65;;
58214;SDS011;44011;52.218;1.480;2022-11-20T07:44:06;35.13;;;14.57;;
58214;SDS011;44011;52.218;1.480;2022-11-20T07:47:36;33.40;;;15.60;;
58214;SDS011;44011;52.218;1.480;2022-11-20T07:51:00;39.30;;;17.17;;
58214;SDS011;44011;52.218;1.480;2022-11-20T07:54:24;31.70;;;15.88;;
58214;SDS011;44011;52.218;1.480;2022-11-20T07:57:53;30.20;;;12.73;;
58214;SDS011;44011;52.218;1.480;2022-11-20T08:01:18;30.95;;;12.60;;
58214;SDS011;44011;52.218;1.480;2022-11-20T08:04:42;30.05;;;12.38;;
58214;SDS011;44011;52.218;1.480;2022-11-20T08:08:05;22.00;;;10.48;;
58214;SDS011;44011;52.218;1.480;2022-11-20T08:11:29;19.20;;;9.48;;
58214;SDS011;44011;52.218;1.480;2022-11-20T08:15:12;25.75;;;9.27;;
58214;SDS011;44011;52.218;1.480;2022-11-20T08:18:36;20.65;;;7.90;;
58214;SDS011;44011;52.218;1.480;2022-11-20T08:22:00;16.05;;;6.50;;
58214;SDS011;44011;52.218;1.480;2022-11-20T08:25:26;17.17;;;5.95;;
58214;SDS011;44011;52.218;1.480;2022-11-20T08:28:53;11.60;;;3.92;;
58214;SDS011;44011;52.218;1.480;2022-11-20T08:32:18;11.10;;;4.45;;
58214;SDS011;44011;52.218;1.480;2022-11-20T08:35:42;4.15;;;2.78;;
58214;SDS011;44011;52.218;1.480;2022-11-20T08:39:06;13.75;;;3.17;;
58214;SDS011;44011;52.218;1.480;2022-11-20T08:42:31;5.18;;;3.00;;
58214;SDS011;44011;52.218;1.480;2022-11-20T08:45:56;5.72;;;2.92;;
58214;SDS011;44011;52.218;1.480;2022-11-20T08:49:20;6.38;;;2.97;;
58214;SDS011;44011;52.218;1.480;2022-11-20T08:52:44;8.88;;;3.10;;
58214;SDS011;44011;52.218;1.480;2022-11-20T08:56:08;4.65;;;2.15;;
58214;SDS011;44011;52.218;1.480;2022-11-20T08:59:32;9.10;;;2.72;;
58214;SDS011;44011;52.218;1.480;2022-11-20T09:02:57;3.33;;;2.28;;
58214;SDS011;44011;52.218;1.480;2022-11-20T09:06:25;7.47;;;2.20;;
58214;SDS011;44011;52.218;1.480;2022-11-20T09:09:49;2.72;;;1.80;;
58214;SDS011;44011;52.218;1.480;2022-11-20T09:13:16;4.47;;;2.35;;
58214;SDS011;44011;52.218;1.480;2022-11-20T09:16:40;6.65;;;2.13;;
58214;SDS011;44011;52.218;1.480;2022-11-20T09:20:04;4.60;;;2.17;;
58214;SDS011;44011;52.218;1.480;2022-11-20T09:23:34;6.00;;;1.95;;
58214;SDS011;44011;52.218;1.480;2022-11-20T09:27:00;10.50;;;2.40;;
58214;SDS011;44011;52.218;1.480;2022-11-20T09:30:25;6.57;;;2.00;;
58214;SDS011;44011;52.218;1.480;2022-11-20T09:33:51;4.95;;;1.90;;
58214;SDS011;44011;52.218;1.480;2022-11-20T09:37:15;5.85;;;1.73;;
58214;SDS011;44011;52.218;1.480;2022-11-20T09:40:43;6.20;;;2.47;;
58214;SDS011;44011;52.218;1.480;2022-11-20T09:55:47;5.20;;;1.25;;
58214;SDS011;44011;52.218;1.480;2022-11-20T10:06:17;8.25;;;2.33;;
58214;SDS011;44011;52.218;1.480;2022-11-20T10:09:50;5.47;;;2.00;;
58214;SDS011;44011;52.218;1.480;2022-11-20T10:30:56;2.90;;;2.05;;
58214;SDS011;44011;52.218;1.480;2022-11-20T10:37:53;6.95;;;2.47;;
58214;SDS011;44011;52.218;1.480;2022-11-20T10:41:23;5.47;;;2.20;;
58214;SDS011;44011;52.218;1.480;2022-11-20T10:44:58;4.80;;;2.53;;
58214;SDS011;44011;52.218;1.480;2022-11-20T10:48:31;4.43;;;2.53;;
58214;SDS011;44011;52.218;1.480;2022-11-20T10:56:15;4.38;;;2.88;;
58214;SDS011;44011;52.218;1.480;2022-11-20T11:00:02;6.88;;;3.63;;
58214;SDS011;44011;52.218;1.480;2022-11-20T11:03:40;8.15;;;3.50;;
58214;SDS011;44011;52.218;1.480;2022-11-20T11:11:24;7.95;;;4.80;;
58214;SDS011;44011;52.218;1.480;2022-11-20T11:14:51;12.85;;;5.80;;
58214;SDS011;44011;52.218;1.480;2022-11-20T11:21:55;6.25;;;4.55;;
58214;SDS011;44011;52.218;1.480;2022-11-20T11:25:22;8.90;;;4.57;;
58214;SDS011;44011;52.218;1.480;2022-11-20T11:28:57;10.15;;;4.53;;
58214;SDS011;44011;52.218;1.480;2022-11-20T11:32:42;8.98;;;4.10;;
58214;SDS011;44011;52.218;1.480;2022-11-20T11:36:16;6.15;;;3.80;;
58214;SDS011;44011;52.218;1.480;2022-11-20T11:39:46;10.10;;;3.20;;
58214;SDS011;44011;52.218;1.480;2022-11-20T11:43:19;9.90;;;3.47;;
58214;SDS011;44011;52.218;1.480;2022-11-20T11:47:08;12.40;;;3.80;;
58214;SDS011;44011;52.218;1.480;2022-11-20T11:50:33;7.05;;;4.05;;
58214;SDS011;44011;52.218;1.480;2022-11-20T11:54:00;9.07;;;3.42;;
58214;SDS011;44011;52.218;1.480;2022-11-20T12:04:50;7.22;;;3.28;;
58214;SDS011;44011;52.218;1.480;2022-11-20T12:08:25;7.43;;;3.58;;
58214;SDS011;44011;52.218;1.480;2022-11-20T12:11:56;5.65;;;2.90;;
58214;SDS011;44011;52.218;1.480;2022-11-20T12:15:30;5.57;;;3.08;;
58214;SDS011;44011;52.218;1.480;2022-11-20T12:18:56;9.65;;;4.63;;
58214;SDS011;44011;52.218;1.480;2022-11-20T12:30:13;10.40;;;3.55;;
58214;SDS011;44011;52.218;1.480;2022-11-20T12:37:35;6.50;;;4.38;;
58214;SDS011;44011;52.218;1.480;2022-11-20T12:45:09;14.27;;;4.97;;
58214;SDS011;44011;52.218;1.480;2022-11-20T12:52:29;12.20;;;4.30;;
58214;SDS011;44011;52.218;1.480;2022-11-20T12:56:23;7.18;;;3.63;;
58214;SDS011;44011;52.218;1.480;2022-11-20T13:00:14;8.65;;;4.00;;
58214;SDS011;44011;52.218;1.480;2022-11-20T13:04:12;12.75;;;3.67;;
58214;SDS011;44011;52.218;1.480;2022-11-20T13:07:46;8.75;;;3.08;;
58214;SDS011;44011;52.218;1.480;2022-11-20T13:18:36;11.68;;;2.28;;
58214;SDS011;44011;52.218;1.480;2022-11-20T13:22:01;11.15;;;2.53;;
58214;SDS011;44011;52.218;1.480;2022-11-20T13:29:03;12.40;;;2.55;;
58214;SDS011;44011;52.218;1.480;2022-11-20T13:32:47;7.25;;;2.55;;
58214;SDS011;44011;52.218;1.480;2022-11-20T13:36:22;8.50;;;2.83;;
58214;SDS011;44011;52.218;1.480;2022-11-20T13:43:51;14.88;;;3.47;;
58214;SDS011;44011;52.218;1.480;2022-11-20T13:47:23;17.70;;;2.95;;
58214;SDS011;44011;52.218;1.480;2022-11-20T14:01:25;6.72;;;2.75;;
58214;SDS011;44011;52.218;1.480;2022-11-20T14:04:51;11.43;;;2.50;;
58214;SDS011;44011;52.218;1.480;2022-11-20T14:08:37;3.70;;;2.25;;
58214;SDS011;44011;52.218;1.480;2022-11-20T14:12:03;14.30;;;2.67;;
58214;SDS011;44011;52.218;1.480;2022-11-20T14:15:43;9.52;;;3.00;;
58214;SDS011;44011;52.218;1.480;2022-11-20T14:22:49;11.40;;;3.08;;
58214;SDS011;44011;52.218;1.480;2022-11-20T14:26:14;10.60;;;3.13;;
58214;SDS011;44011;52.218;1.480;2022-11-20T14:29:42;5.82;;;2.20;;
58214;SDS011;44011;52.218;1.480;2022-11-20T14:33:11;10.18;;;3.17;;
58214;SDS011;44011;52.218;1.480;2022-11-20T14:36:42;11.43;;;3.00;;
58214;SDS011;44011;52.218;1.480;2022-11-20T14:40:26;8.43;;;2.60;;
58214;SDS011;44011;52.218;1.480;2022-11-20T14:43:53;10.02;;;3.42;;
58214;SDS011;44011;52.218;1.480;2022-11-20T14:47:26;12.50;;;3.17;;
58214;SDS011;44011;52.218;1.480;2022-11-20T14:54:25;13.23;;;2.10;;
58214;SDS011;44011;52.218;1.480;2022-11-20T14:57:54;11.05;;;2.60;;
58214;SDS011;44011;52.218;1.480;2022-11-20T15:01:26;18.90;;;3.75;;
58214;SDS011;44011;52.218;1.480;2022-11-20T15:04:56;13.85;;;2.22;;
58214;SDS011;44011;52.218;1.480;2022-11-20T15:08:20;11.55;;;2.60;;
58214;SDS011;44011;52.218;1.480;2022-11-20T15:11:55;12.32;;;3.13;;
58214;SDS011;44011;52.218;1.480;2022-11-20T15:15:28;7.05;;;2.15;;
58214;SDS011;44011;52.218;1.480;2022-11-20T15:18:53;10.88;;;2.38;;
58214;SDS011;44011;52.218;1.480;2022-11-20T15:22:18;8.40;;;2.13;;
58214;SDS011;44011;52.218;1.480;2022-11-20T15:25:45;15.45;;;3.55;;
58214;SDS011;44011;52.218;1.480;2022-11-20T15:29:10;10.73;;;2.45;;
58214;SDS011;44011;52.218;1.480;2022-11-20T15:32:42;11.73;;;2.63;;
58214;SDS011;44011;52.218;1.480;2022-11-20T15:36:07;12.85;;;3.88;;
58214;SDS011;44011;52.218;1.480;2022-11-20T15:39:31;19.38;;;3.38;;
58214;SDS011;44011;52.218;1.480;2022-11-20T15:42:55;15.25;;;3.10;;
58214;SDS011;44011;52.218;1.480;2022-11-20T15:46:24;11.85;;;3.35;;
58214;SDS011;44011;52.218;1.480;2022-11-20T15:49:51;10.93;;;2.13;;
58214;SDS011;44011;52.218;1.480;2022-11-20T15:53:18;13.23;;;2.70;;
58214;SDS011;44011;52.218;1.480;2022-11-20T15:56:45;11.40;;;2.03;;
58214;SDS011;44011;52.218;1.480;2022-11-20T16:00:09;9.27;;;2.20;;
58214;SDS011;44011;52.218;1.480;2022-11-20T16:03:36;16.40;;;2.75;;
58214;SDS011;44011;52.218;1.480;2022-11-20T16:07:01;14.02;;;2.17;;
58214;SDS011;44011;52.218;1.480;2022-11-20T16:10:25;8.13;;;2.65;;
58214;SDS011;44011;52.218;1.480;2022-11-20T16:13:49;13.52;;;3.95;;
58214;SDS011;44011;52.218;1.480;2022-11-20T16:17:31;11.70;;;3.72;;
58214;SDS011;44011;52.218;1.480;2022-11-20T16:20:55;10.52;;;3.65;;
58214;SDS011;44011;52.218;1.480;2022-11-20T16:24:19;11.95;;;4.50;;
58214;SDS011;44011;52.218;1.480;2022-11-20T16:27:44;9.38;;;3.70;;
58214;SDS011;44011;52.218;1.480;2022-11-20T16:31:11;18.10;;;3.35;;
58214;SDS011;44011;52.218;1.480;2022-11-20T16:34:37;15.80;;;3.20;;
58214;SDS011;44011;52.218;1.480;2022-11-20T16:38:01;14.13;;;4.05;;
58214;SDS011;44011;52.218;1.480;2022-11-20T16:41:26;19.92;;;3.40;;
58214;SDS011;44011;52.218;1.480;2022-11-20T16:44:51;15.02;;;3.58;;
58214;SDS011;44011;52.218;1.480;2022-11-20T16:48:15;13.82;;;3.70;;
58214;SDS011;44011;52.218;1.480;2022-11-20T16:51:39;15.75;;;3.78;;
58214;SDS011;44011;52.218;1.480;2022-11-20T16:55:03;13.20;;;3.63;;
58214;SDS011;44011;52.218;1.480;2022-11-20T16:58:34;13.40;;;3.45;;
58214;SDS011;44011;52.218;1.480;2022-11-20T17:01:58;13.32;;;3.88;;
58214;SDS011;44011;52.218;1.480;2022-11-20T17:05:22;11.75;;;4.13;;
58214;SDS011;44011;52.218;1.480;2022-11-20T17:08:47;14.52;;;3.60;;
58214;SDS011;44011;52.218;1.480;2022-11-20T17:12:11;13.93;;;5.03;;
58214;SDS011;44011;52.218;1.480;2022-11-20T17:15:35;30.30;;;7.60;;
58214;SDS011;44011;52.218;1.480;2022-11-20T17:19:00;15.48;;;5.75;;
58214;SDS011;44011;52.218;1.480;2022-11-20T17:22:24;20.08;;;5.05;;
58214;SDS011;44011;52.218;1.480;2022-11-20T17:25:48;16.02;;;4.90;;
58214;SDS011;44011;52.218;1.480;2022-11-20T17:29:14;35.97;;;15.15;;
58214;SDS011;44011;52.218;1.480;2022-11-20T17:32:38;33.67;;;13.90;;
58214;SDS011;44011;52.218;1.480;2022-11-20T17:36:04;28.52;;;11.43;;
58214;SDS011;44011;52.218;1.480;2022-11-20T17:39:28;20.23;;;6.90;;
58214;SDS011;44011;52.218;1.480;2022-11-20T17:42:52;17.67;;;6.07;;
58214;SDS011;44011;52.218;1.480;2022-11-20T17:46:24;15.65;;;6.05;;
58214;SDS011;44011;52.218;1.480;2022-11-20T17:49:48;15.25;;;5.53;;
58214;SDS011;44011;52.218;1.480;2022-11-20T17:53:12;13.05;;;4.05;;
58214;SDS011;44011;52.218;1.480;2022-11-20T17:56:36;20.85;;;6.65;;
58214;SDS011;44011;52.218;1.480;2022-11-20T18:00:21;23.50;;;6.15;;
58214;SDS011;44011;52.218;1.480;2022-11-20T18:03:46;15.82;;;6.82;;
58214;SDS011;44011;52.218;1.480;2022-11-20T18:07:10;16.73;;;7.00;;
58214;SDS011;44011;52.218;1.480;2022-11-20T18:10:34;26.77;;;6.50;;
58214;SDS011;44011;52.218;1.480;2022-11-20T18:14:00;16.30;;;6.22;;
58214;SDS011;44011;52.218;1.480;2022-11-20T18:17:24;21.00;;;6.60;;
58214;SDS011;44011;52.218;1.480;2022-11-20T18:20:51;13.50;;;4.78;;
58214;SDS011;44011;52.218;1.480;2022-11-20T18:24:17;10.65;;;3.67;;
58214;SDS011;44011;52.218;1.480;2022-11-20T18:27:41;18.02;;;4.88;;
58214;SDS011;44011;52.218;1.480;2022-11-20T18:31:06;12.65;;;4.18;;
58214;SDS011;44011;52.218;1.480;2022-11-20T18:34:30;9.45;;;3.35;;
58214;SDS011;44011;52.218;1.480;2022-11-20T18:41:25;13.50;;;3.95;;
58214;SDS011;44011;52.218;1.480;2022-11-20T18:45:08;18.30;;;4.75;;
58214;SDS011;44011;52.218;1.480;2022-11-20T18:48:32;11.18;;;3.90;;
58214;SDS011;44011;52.218;1.480;2022-11-20T18:51:56;14.48;;;3.53;;
58214;SDS011;44011;52.218;1.480;2022-11-20T18:55:21;14.75;;;3.72;;
58214;SDS011;44011;52.218;1.480;2022-11-20T18:58:45;8.57;;;3.83;;
58214;SDS011;44011;52.218;1.480;2022-11-20T19:02:10;13.07;;;3.60;;
58214;SDS011;44011;52.218;1.480;2022-11-20T19:05:35;20.17;;;4.35;;
58214;SDS011;44011;52.218;1.480;2022-11-20T19:08:59;9.55;;;3.15;;
58214;SDS011;44011;52.218;1.480;2022-11-20T19:12:23;10.68;;;4.20;;
58214;SDS011;44011;52.218;1.480;2022-11-20T19:15:48;6.80;;;2.95;;
58214;SDS011;44011;52.218;1.480;2022-11-20T19:19:12;17.25;;;4.00;;
58214;SDS011;44011;52.218;1.480;2022-11-20T19:22:37;14.27;;;3.88;;
58214;SDS011;44011;52.218;1.480;2022-11-20T19:26:01;9.15;;;2.58;;
58214;SDS011;44011;52.218;1.480;2022-11-20T19:29:25;9.32;;;2.92;;
58214;SDS011;44011;52.218;1.480;2022-11-20T19:32:50;8.23;;;1.90;;
58214;SDS011;44011;52.218;1.480;2022-11-20T19:36:22;12.50;;;2.50;;
58214;SDS011;44011;52.218;1.480;2022-11-20T19:39:46;6.38;;;2.55;;
58214;SDS011;44011;52.218;1.480;2022-11-20T19:43:10;7.85;;;2.40;;
58214;SDS011;44011;52.218;1.480;2022-11-20T19:46:38;5.82;;;2.75;;
58214;SDS011;44011;52.218;1.480;2022-11-20T19:50:02;3.63;;;1.35;;
58214;SDS011;44011;52.218;1.480;2022-11-20T19:53:36;5.22;;;1.58;;
58214;SDS011;44011;52.218;1.480;2022-11-20T19:57:00;5.28;;;1.33;;
58214;SDS011;44011;52.218;1.480;2022-11-20T20:00:24;2.40;;;0.98;;
58214;SDS011;44011;52.218;1.480;2022-11-20T20:03:49;5.00;;;0.88;;
58214;SDS011;44011;52.218;1.480;2022-11-20T20:07:13;2.65;;;0.75;;
58214;SDS011;44011;52.218;1.480;2022-11-20T20:10:37;2.15;;;0.70;;
58214;SDS011;44011;52.218;1.480;2022-11-20T20:14:02;1.48;;;0.80;;
58214;SDS011;44011;52.218;1.480;2022-11-20T20:17:27;3.13;;;0.85;;
58214;SDS011;44011;52.218;1.480;2022-11-20T20:20:51;3.75;;;1.45;;
58214;SDS011;44011;52.218;1.480;2022-11-20T20:24:15;4.72;;;1.23;;
58214;SDS011;44011;52.218;1.480;2022-11-20T20:27:39;2.17;;;1.42;;
58214;SDS011;44011;52.218;1.480;2022-11-20T20:31:10;3.03;;;1.38;;
58214;SDS011;44011;52.218;1.480;2022-11-20T20:34:34;5.63;;;3.10;;
58214;SDS011;44011;52.218;1.480;2022-11-20T20:37:58;5.70;;;2.75;;
58214;SDS011;44011;52.218;1.480;2022-11-20T20:41:29;5.53;;;1.70;;
58214;SDS011;44011;52.218;1.480;2022-11-20T20:44:53;4.63;;;2.35;;
58214;SDS011;44011;52.218;1.480;2022-11-20T20:48:19;3.63;;;1.90;;
58214;SDS011;44011;52.218;1.480;2022-11-20T20:51:43;4.50;;;1.60;;
58214;SDS011;44011;52.218;1.480;2022-11-20T20:55:07;3.25;;;2.00;;
58214;SDS011;44011;52.218;1.480;2022-11-20T20:58:31;7.57;;;2.10;;
58214;SDS011;44011;52.218;1.480;2022-11-20T21:01:55;5.55;;;1.80;;
58214;SDS011;44011;52.218;1.480;2022-11-20T21:05:19;3.53;;;1.33;;
58214;SDS011;44011;52.218;1.480;2022-11-20T21:08:43;9.07;;;2.75;;
58214;SDS011;44011;52.218;1.480;2022-11-20T21:12:07;1.88;;;1.65;;
58214;SDS011;44011;52.218;1.480;2022-11-20T21:15:31;3.10;;;1.60;;
58214;SDS011;44011;52.218;1.480;2022-11-20T21:19:05;2.42;;;1.63;;
58214;SDS011;44011;52.218;1.480;2022-11-20T21:22:49;4.78;;;1.80;;
58214;SDS011;44011;52.218;1.480;2022-11-20T21:26:14;5.60;;;1.70;;
58214;SDS011;44011;52.218;1.480;2022-11-20T21:29:38;4.25;;;1.98;;
58214;SDS011;44011;52.218;1.480;2022-11-20T21:33:02;4.70;;;1.90;;
58214;SDS011;44011;52.218;1.480;2022-11-20T21:36:27;9.02;;;1.63;;
58214;SDS011;44011;52.218;1.480;2022-11-20T21:39:51;6.72;;;2.03;;
58214;SDS011;44011;52.218;1.480;2022-11-20T21:43:15;2.40;;;1.63;;
58214;SDS011;44011;52.218;1.480;2022-11-20T21:46:40;7.57;;;2.75;;
58214;SDS011;44011;52.218;1.480;2022-11-20T21:50:04;6.63;;;2.35;;
58214;SDS011;44011;52.218;1.480;2022-11-20T21:53:39;5.40;;;2.30;;
58214;SDS011;44011;52.218;1.480;2022-11-20T21:57:02;6.07;;;2.30;;
58214;SDS011;44011;52.218;1.480;2022-11-20T22:00:26;7.57;;;3.05;;
58214;SDS011;44011;52.218;1.480;2022-11-20T22:03:53;4.25;;;2.20;;
58214;SDS011;44011;52.218;1.480;2022-11-20T22:07:17;5.38;;;2.88;;
58214;SDS011;44011;52.218;1.480;2022-11-20T22:10:41;5.72;;;2.90;;
58214;SDS011;44011;52.218;1.480;2022-11-20T22:14:05;8.00;;;2.88;;
58214;SDS011;44011;52.218;1.480;2022-11-20T22:17:29;5.78;;;3.03;;
58214;SDS011;44011;52.218;1.480;2022-11-20T22:20:53;4.05;;;2.95;;
58214;SDS011;44011;52.218;1.480;2022-11-20T22:24:18;8.63;;;3.83;;
58214;SDS011;44011;52.218;1.480;2022-11-20T22:27:44;5.82;;;3.08;;